sensor_id;sensor_type;location;lat;lon;timestamp;P1;durP1;ratioP1;P2;durP2;ratioP2
11998;SDS011;40817;51.520;9.954;2023-04-06T00:01:47;12.40;;;6.85;;
11998;SDS011;40817;51.520;9.954;2023-04-06T00:04:15;10.95;;;6.45;;
11998;SDS011;40817;51.520;9.954;2023-04-06T00:06:43;9.50;;;6.25;;
11998;SDS011;40817;51.520;9.954;2023-04-06T00:09:11;9.35;;;5.72;;
11998;SDS011;40817;51.520;9.954;2023-04-06T00:11:40;8.57;;;5.78;;
11998;SDS011;40817;51.520;9.954;2023-04-06T00:14:08;11.30;;;5.45;;
11998;SDS011;40817;51.520;9.954;2023-04-06T00:16:35;7.60;;;5.30;;
11998;SDS011;40817;51.520;9.954;2023-04-06T00:19:03;7.70;;;5.30;;
11998;SDS011;40817;51.520;9.954;2023-04-06T00:21:31;8.73;;;4.85;;
11998;SDS011;40817;51.520;9.954;2023-04-06T00:23:59;7.25;;;4.53;;
11998;SDS011;40817;51.520;9.954;2023-04-06T00:26:26;5.57;;;4.03;;
11998;SDS011;40817;51.520;9.954;2023-04-06T00:28:55;8.05;;;4.85;;
11998;SDS011;40817;51.520;9.954;2023-04-06T00:31:24;7.90;;;4.70;;
11998;SDS011;40817;51.520;9.954;2023-04-06T00:33:52;8.45;;;4.55;;
11998;SDS011;40817;51.520;9.954;2023-04-06T00:36:19;7.45;;;4.70;;
11998;SDS011;40817;51.520;9.954;2023-04-06T00:38:47;6.88;;;4.32;;
11998;SDS011;40817;51.520;9.954;2023-04-06T00:41:15;8.63;;;4.75;;
11998;SDS011;40817;51.520;9.954;2023-04-06T00:43:44;6.47;;;4.28;;
11998;SDS011;40817;51.520;9.954;2023-04-06T00:46:13;6.47;;;4.90;;
11998;SDS011;40817;51.520;9.954;2023-04-06T00:48:41;8.70;;;4.45;;
11998;SDS011;40817;51.520;9.954;2023-04-06T00:51:09;6.50;;;4.70;;
11998;SDS011;40817;51.520;9.954;2023-04-06T00:53:36;8.38;;;4.75;;
11998;SDS011;40817;51.520;9.954;2023-04-06T00:56:04;6.90;;;4.60;;
11998;SDS011;40817;51.520;9.954;2023-04-06T00:58:35;6.82;;;4.30;;
11998;SDS011;40817;51.520;9.954;2023-04-06T01:01:04;8.82;;;5.70;;
11998;SDS011;40817;51.520;9.954;2023-04-06T01:03:33;12.25;;;5.53;;
11998;SDS011;40817;51.520;9.954;2023-04-06T01:06:01;13.85;;;6.20;;
11998;SDS011;40817;51.520;9.954;2023-04-06T01:08:29;10.40;;;5.15;;
11998;SDS011;40817;51.520;9.954;2023-04-06T01:10:58;8.38;;;5.97;;
11998;SDS011;40817;51.520;9.954;2023-04-06T01:13:27;10.00;;;5.35;;
11998;SDS011;40817;51.520;9.954;2023-04-06T01:15:55;8.82;;;5.70;;
11998;SDS011;40817;51.520;9.954;2023-04-06T01:18:25;8.75;;;5.60;;
11998;SDS011;40817;51.520;9.954;2023-04-06T01:20:55;10.45;;;5.80;;
11998;SDS011;40817;51.520;9.954;2023-04-06T01:23:25;9.00;;;5.65;;
11998;SDS011;40817;51.520;9.954;2023-04-06T01:25:52;11.45;;;5.82;;
11998;SDS011;40817;51.520;9.954;2023-04-06T01:28:20;10.23;;;6.10;;
11998;SDS011;40817;51.520;9.954;2023-04-06T01:30:48;8.63;;;6.05;;
11998;SDS011;40817;51.520;9.954;2023-04-06T01:33:16;9.63;;;6.05;;
11998;SDS011;40817;51.520;9.954;2023-04-06T01:35:43;10.75;;;6.30;;
11998;SDS011;40817;51.520;9.954;2023-04-06T01:38:11;8.85;;;5.55;;
11998;SDS011;40817;51.520;9.954;2023-04-06T01:40:40;10.80;;;5.50;;
11998;SDS011;40817;51.520;9.954;2023-04-06T01:43:08;7.95;;;5.05;;
11998;SDS011;40817;51.520;9.954;2023-04-06T01:45:35;10.73;;;5.40;;
11998;SDS011;40817;51.520;9.954;2023-04-06T01:48:03;9.18;;;5.72;;
11998;SDS011;40817;51.520;9.954;2023-04-06T01:50:32;8.75;;;5.30;;
11998;SDS011;40817;51.520;9.954;2023-04-06T01:52:59;8.30;;;6.07;;
11998;SDS011;40817;51.520;9.954;2023-04-06T01:55:27;10.27;;;5.07;;
11998;SDS011;40817;51.520;9.954;2023-04-06T01:57:56;8.77;;;6.05;;
11998;SDS011;40817;51.520;9.954;2023-04-06T02:00:24;9.63;;;6.05;;
11998;SDS011;40817;51.520;9.954;2023-04-06T02:02:51;7.75;;;5.25;;
11998;SDS011;40817;51.520;9.954;2023-04-06T02:05:19;10.90;;;5.60;;
11998;SDS011;40817;51.520;9.954;2023-04-06T02:07:47;11.50;;;6.07;;
11998;SDS011;40817;51.520;9.954;2023-04-06T02:10:15;8.63;;;5.03;;
11998;SDS011;40817;51.520;9.954;2023-04-06T02:12:43;7.53;;;6.03;;
11998;SDS011;40817;51.520;9.954;2023-04-06T02:15:12;8.10;;;5.80;;
11998;SDS011;40817;51.520;9.954;2023-04-06T02:17:40;9.00;;;5.82;;
11998;SDS011;40817;51.520;9.954;2023-04-06T02:20:08;7.97;;;5.63;;
11998;SDS011;40817;51.520;9.954;2023-04-06T02:22:37;8.43;;;5.95;;
11998;SDS011;40817;51.520;9.954;2023-04-06T02:25:05;9.73;;;6.40;;
11998;SDS011;40817;51.520;9.954;2023-04-06T02:27:34;8.93;;;6.13;;
11998;SDS011;40817;51.520;9.954;2023-04-06T02:30:02;11.40;;;5.80;;
11998;SDS011;40817;51.520;9.954;2023-04-06T02:32:32;7.93;;;5.85;;
11998;SDS011;40817;51.520;9.954;2023-04-06T02:35:00;8.07;;;5.93;;
11998;SDS011;40817;51.520;9.954;2023-04-06T02:37:28;10.63;;;5.97;;
11998;SDS011;40817;51.520;9.954;2023-04-06T02:39:55;7.50;;;5.35;;
11998;SDS011;40817;51.520;9.954;2023-04-06T02:42:23;8.07;;;5.82;;
11998;SDS011;40817;51.520;9.954;2023-04-06T02:44:51;8.90;;;6.20;;
11998;SDS011;40817;51.520;9.954;2023-04-06T02:47:19;11.80;;;7.13;;
11998;SDS011;40817;51.520;9.954;2023-04-06T02:49:47;10.60;;;6.35;;
11998;SDS011;40817;51.520;9.954;2023-04-06T02:52:15;9.40;;;6.00;;
11998;SDS011;40817;51.520;9.954;2023-04-06T02:54:43;8.23;;;6.22;;
11998;SDS011;40817;51.520;9.954;2023-04-06T02:57:11;8.65;;;6.40;;
11998;SDS011;40817;51.520;9.954;2023-04-06T02:59:38;9.73;;;5.75;;
11998;SDS011;40817;51.520;9.954;2023-04-06T03:02:06;11.93;;;6.10;;
11998;SDS011;40817;51.520;9.954;2023-04-06T03:04:55;9.30;;;6.13;;
11998;SDS011;40817;51.520;9.954;2023-04-06T03:07:23;9.25;;;6.30;;
11998;SDS011;40817;51.520;9.954;2023-04-06T03:09:51;12.90;;;7.25;;
11998;SDS011;40817;51.520;9.954;2023-04-06T03:12:19;8.20;;;5.68;;
11998;SDS011;40817;51.520;9.954;2023-04-06T03:14:47;9.73;;;5.88;;
11998;SDS011;40817;51.520;9.954;2023-04-06T03:17:14;10.52;;;6.55;;
11998;SDS011;40817;51.520;9.954;2023-04-06T03:19:42;10.80;;;6.93;;
11998;SDS011;40817;51.520;9.954;2023-04-06T03:22:12;10.02;;;6.90;;
11998;SDS011;40817;51.520;9.954;2023-04-06T03:24:39;9.98;;;6.60;;
11998;SDS011;40817;51.520;9.954;2023-04-06T03:27:07;8.85;;;6.57;;
11998;SDS011;40817;51.520;9.954;2023-04-06T03:29:35;11.57;;;6.43;;
11998;SDS011;40817;51.520;9.954;2023-04-06T03:32:02;9.52;;;6.78;;
11998;SDS011;40817;51.520;9.954;2023-04-06T03:34:30;9.50;;;6.30;;
11998;SDS011;40817;51.520;9.954;2023-04-06T03:36:58;8.00;;;6.10;;
11998;SDS011;40817;51.520;9.954;2023-04-06T03:39:27;9.75;;;5.85;;
11998;SDS011;40817;51.520;9.954;2023-04-06T03:41:55;9.40;;;5.90;;
11998;SDS011;40817;51.520;9.954;2023-04-06T03:44:23;10.90;;;6.72;;
11998;SDS011;40817;51.520;9.954;2023-04-06T03:46:51;11.98;;;6.88;;
11998;SDS011;40817;51.520;9.954;2023-04-06T03:49:18;7.55;;;5.78;;
11998;SDS011;40817;51.520;9.954;2023-04-06T03:51:46;9.75;;;6.82;;
11998;SDS011;40817;51.520;9.954;2023-04-06T03:54:15;9.43;;;5.85;;
11998;SDS011;40817;51.520;9.954;2023-04-06T03:56:44;9.10;;;5.97;;
11998;SDS011;40817;51.520;9.954;2023-04-06T03:59:12;8.52;;;5.93;;
11998;SDS011;40817;51.520;9.954;2023-04-06T04:01:40;9.75;;;6.13;;
11998;SDS011;40817;51.520;9.954;2023-04-06T04:04:08;13.35;;;8.13;;
11998;SDS011;40817;51.520;9.954;2023-04-06T04:06:36;10.73;;;6.05;;
11998;SDS011;40817;51.520;9.954;2023-04-06T04:09:04;10.63;;;6.65;;
11998;SDS011;40817;51.520;9.954;2023-04-06T04:11:32;9.02;;;6.60;;
11998;SDS011;40817;51.520;9.954;2023-04-06T04:14:01;11.05;;;6.93;;
11998;SDS011;40817;51.520;9.954;2023-04-06T04:16:29;11.75;;;6.85;;
11998;SDS011;40817;51.520;9.954;2023-04-06T04:18:57;11.50;;;7.40;;
11998;SDS011;40817;51.520;9.954;2023-04-06T04:21:25;11.75;;;7.53;;
11998;SDS011;40817;51.520;9.954;2023-04-06T04:23:56;10.27;;;7.03;;
11998;SDS011;40817;51.520;9.954;2023-04-06T04:26:24;9.55;;;6.63;;
11998;SDS011;40817;51.520;9.954;2023-04-06T04:28:51;11.88;;;6.97;;
11998;SDS011;40817;51.520;9.954;2023-04-06T04:31:20;11.60;;;7.88;;
11998;SDS011;40817;51.520;9.954;2023-04-06T04:33:48;11.02;;;7.07;;
11998;SDS011;40817;51.520;9.954;2023-04-06T04:36:16;10.63;;;7.03;;
11998;SDS011;40817;51.520;9.954;2023-04-06T04:38:44;9.73;;;7.20;;
11998;SDS011;40817;51.520;9.954;2023-04-06T04:41:12;12.73;;;7.50;;
11998;SDS011;40817;51.520;9.954;2023-04-06T04:43:40;11.90;;;7.90;;
11998;SDS011;40817;51.520;9.954;2023-04-06T04:46:08;9.70;;;7.53;;
11998;SDS011;40817;51.520;9.954;2023-04-06T04:48:37;11.55;;;7.45;;
11998;SDS011;40817;51.520;9.954;2023-04-06T04:51:05;11.68;;;6.88;;
11998;SDS011;40817;51.520;9.954;2023-04-06T04:53:33;11.13;;;7.07;;
11998;SDS011;40817;51.520;9.954;2023-04-06T04:56:01;10.25;;;7.30;;
11998;SDS011;40817;51.520;9.954;2023-04-06T04:58:29;13.02;;;7.60;;
11998;SDS011;40817;51.520;9.954;2023-04-06T05:00:57;9.85;;;7.35;;
11998;SDS011;40817;51.520;9.954;2023-04-06T05:03:26;10.43;;;7.13;;
11998;SDS011;40817;51.520;9.954;2023-04-06T05:05:55;11.30;;;6.95;;
11998;SDS011;40817;51.520;9.954;2023-04-06T05:08:23;9.15;;;6.57;;
11998;SDS011;40817;51.520;9.954;2023-04-06T05:10:51;11.98;;;7.03;;
11998;SDS011;40817;51.520;9.954;2023-04-06T05:13:19;11.77;;;7.13;;
11998;SDS011;40817;51.520;9.954;2023-04-06T05:15:46;13.30;;;7.82;;
11998;SDS011;40817;51.520;9.954;2023-04-06T05:18:14;12.43;;;7.03;;
11998;SDS011;40817;51.520;9.954;2023-04-06T05:20:43;8.93;;;6.65;;
11998;SDS011;40817;51.520;9.954;2023-04-06T05:23:12;10.40;;;6.88;;
11998;SDS011;40817;51.520;9.954;2023-04-06T05:25:39;12.25;;;6.70;;
11998;SDS011;40817;51.520;9.954;2023-04-06T05:28:07;13.65;;;6.95;;
11998;SDS011;40817;51.520;9.954;2023-04-06T05:30:35;10.77;;;7.10;;
11998;SDS011;40817;51.520;9.954;2023-04-06T05:33:03;10.55;;;7.32;;
11998;SDS011;40817;51.520;9.954;2023-04-06T05:35:32;11.27;;;7.38;;
11998;SDS011;40817;51.520;9.954;2023-04-06T05:38:00;13.48;;;7.63;;
11998;SDS011;40817;51.520;9.954;2023-04-06T05:40:29;13.38;;;7.68;;
11998;SDS011;40817;51.520;9.954;2023-04-06T05:42:57;13.63;;;8.45;;
11998;SDS011;40817;51.520;9.954;2023-04-06T05:45:25;11.57;;;7.03;;
11998;SDS011;40817;51.520;9.954;2023-04-06T05:47:53;13.07;;;8.07;;
11998;SDS011;40817;51.520;9.954;2023-04-06T05:50:21;11.60;;;7.88;;
11998;SDS011;40817;51.520;9.954;2023-04-06T05:52:49;11.65;;;8.40;;
11998;SDS011;40817;51.520;9.954;2023-04-06T05:55:17;14.73;;;7.78;;
11998;SDS011;40817;51.520;9.954;2023-04-06T05:57:46;13.15;;;8.50;;
11998;SDS011;40817;51.520;9.954;2023-04-06T06:00:14;13.40;;;8.20;;
11998;SDS011;40817;51.520;9.954;2023-04-06T06:02:42;12.07;;;7.88;;
11998;SDS011;40817;51.520;9.954;2023-04-06T06:05:10;13.10;;;8.00;;
11998;SDS011;40817;51.520;9.954;2023-04-06T06:07:38;10.07;;;7.78;;
11998;SDS011;40817;51.520;9.954;2023-04-06T06:10:06;13.95;;;7.72;;
11998;SDS011;40817;51.520;9.954;2023-04-06T06:12:36;11.32;;;7.07;;
11998;SDS011;40817;51.520;9.954;2023-04-06T06:15:06;10.27;;;7.68;;
11998;SDS011;40817;51.520;9.954;2023-04-06T06:17:35;10.82;;;6.85;;
11998;SDS011;40817;51.520;9.954;2023-04-06T06:20:03;9.90;;;7.30;;
11998;SDS011;40817;51.520;9.954;2023-04-06T06:22:33;10.43;;;7.20;;
11998;SDS011;40817;51.520;9.954;2023-04-06T06:25:01;11.35;;;7.20;;
11998;SDS011;40817;51.520;9.954;2023-04-06T06:27:31;10.85;;;7.22;;
11998;SDS011;40817;51.520;9.954;2023-04-06T06:29:59;19.38;;;7.72;;
11998;SDS011;40817;51.520;9.954;2023-04-06T06:32:29;9.45;;;7.45;;
11998;SDS011;40817;51.520;9.954;2023-04-06T06:34:56;13.38;;;8.32;;
11998;SDS011;40817;51.520;9.954;2023-04-06T06:37:25;14.10;;;7.75;;
11998;SDS011;40817;51.520;9.954;2023-04-06T06:39:52;13.13;;;8.55;;
11998;SDS011;40817;51.520;9.954;2023-04-06T06:42:20;15.30;;;7.78;;
11998;SDS011;40817;51.520;9.954;2023-04-06T06:44:48;13.88;;;8.18;;
11998;SDS011;40817;51.520;9.954;2023-04-06T06:47:16;13.10;;;8.07;;
11998;SDS011;40817;51.520;9.954;2023-04-06T06:49:45;12.95;;;7.88;;
11998;SDS011;40817;51.520;9.954;2023-04-06T06:52:12;11.77;;;7.63;;
11998;SDS011;40817;51.520;9.954;2023-04-06T06:54:40;14.95;;;7.90;;
11998;SDS011;40817;51.520;9.954;2023-04-06T06:57:09;13.65;;;8.18;;
11998;SDS011;40817;51.520;9.954;2023-04-06T06:59:36;17.42;;;8.70;;
11998;SDS011;40817;51.520;9.954;2023-04-06T07:02:05;16.70;;;8.35;;
11998;SDS011;40817;51.520;9.954;2023-04-06T07:04:32;20.05;;;8.60;;
11998;SDS011;40817;51.520;9.954;2023-04-06T07:07:02;25.23;;;8.50;;
11998;SDS011;40817;51.520;9.954;2023-04-06T07:09:29;17.48;;;8.80;;
11998;SDS011;40817;51.520;9.954;2023-04-06T07:11:59;19.85;;;9.35;;
11998;SDS011;40817;51.520;9.954;2023-04-06T07:14:27;18.23;;;9.98;;
11998;SDS011;40817;51.520;9.954;2023-04-06T07:16:55;17.30;;;9.93;;
11998;SDS011;40817;51.520;9.954;2023-04-06T07:19:22;18.60;;;9.50;;
11998;SDS011;40817;51.520;9.954;2023-04-06T07:21:50;13.45;;;9.13;;
11998;SDS011;40817;51.520;9.954;2023-04-06T07:24:20;15.77;;;8.65;;
11998;SDS011;40817;51.520;9.954;2023-04-06T07:26:47;13.68;;;8.90;;
11998;SDS011;40817;51.520;9.954;2023-04-06T07:29:15;12.07;;;8.48;;
11998;SDS011;40817;51.520;9.954;2023-04-06T07:31:43;11.88;;;7.97;;
11998;SDS011;40817;51.520;9.954;2023-04-06T07:34:11;13.60;;;8.32;;
11998;SDS011;40817;51.520;9.954;2023-04-06T07:36:38;12.70;;;7.85;;
11998;SDS011;40817;51.520;9.954;2023-04-06T07:39:06;14.07;;;7.63;;
11998;SDS011;40817;51.520;9.954;2023-04-06T07:41:36;11.95;;;7.30;;
11998;SDS011;40817;51.520;9.954;2023-04-06T07:44:04;10.15;;;7.05;;
11998;SDS011;40817;51.520;9.954;2023-04-06T07:46:32;11.82;;;7.68;;
11998;SDS011;40817;51.520;9.954;2023-04-06T07:49:00;10.77;;;7.30;;
11998;SDS011;40817;51.520;9.954;2023-04-06T07:51:28;12.82;;;7.63;;
11998;SDS011;40817;51.520;9.954;2023-04-06T07:53:56;10.90;;;7.03;;
11998;SDS011;40817;51.520;9.954;2023-04-06T07:56:27;11.30;;;6.68;;
11998;SDS011;40817;51.520;9.954;2023-04-06T07:58:56;11.27;;;6.55;;
11998;SDS011;40817;51.520;9.954;2023-04-06T08:01:24;9.68;;;5.97;;
11998;SDS011;40817;51.520;9.954;2023-04-06T08:03:53;12.45;;;6.60;;
11998;SDS011;40817;51.520;9.954;2023-04-06T08:06:22;11.10;;;6.30;;
11998;SDS011;40817;51.520;9.954;2023-04-06T08:08:50;11.50;;;7.07;;
11998;SDS011;40817;51.520;9.954;2023-04-06T08:11:18;8.48;;;5.80;;
11998;SDS011;40817;51.520;9.954;2023-04-06T08:13:46;10.20;;;6.22;;
11998;SDS011;40817;51.520;9.954;2023-04-06T08:16:15;9.45;;;5.97;;
11998;SDS011;40817;51.520;9.954;2023-04-06T08:18:43;11.60;;;7.00;;
11998;SDS011;40817;51.520;9.954;2023-04-06T08:21:10;9.70;;;6.05;;
11998;SDS011;40817;51.520;9.954;2023-04-06T08:23:40;10.20;;;6.32;;
11998;SDS011;40817;51.520;9.954;2023-04-06T08:26:08;13.13;;;6.72;;
11998;SDS011;40817;51.520;9.954;2023-04-06T08:28:36;12.75;;;6.55;;
11998;SDS011;40817;51.520;9.954;2023-04-06T08:31:04;11.77;;;6.20;;
11998;SDS011;40817;51.520;9.954;2023-04-06T08:33:34;9.20;;;6.15;;
11998;SDS011;40817;51.520;9.954;2023-04-06T08:36:07;10.93;;;6.78;;
11998;SDS011;40817;51.520;9.954;2023-04-06T08:38:37;11.13;;;6.40;;
11998;SDS011;40817;51.520;9.954;2023-04-06T08:41:08;10.25;;;5.72;;
11998;SDS011;40817;51.520;9.954;2023-04-06T08:43:40;11.55;;;5.93;;
11998;SDS011;40817;51.520;9.954;2023-04-06T08:46:12;9.95;;;6.55;;
11998;SDS011;40817;51.520;9.954;2023-04-06T08:48:42;9.73;;;6.22;;
11998;SDS011;40817;51.520;9.954;2023-04-06T08:51:14;10.30;;;6.55;;
11998;SDS011;40817;51.520;9.954;2023-04-06T08:53:43;9.85;;;6.45;;
11998;SDS011;40817;51.520;9.954;2023-04-06T08:56:11;11.75;;;5.90;;
11998;SDS011;40817;51.520;9.954;2023-04-06T08:58:39;8.80;;;5.90;;
11998;SDS011;40817;51.520;9.954;2023-04-06T09:01:09;10.32;;;6.47;;
11998;SDS011;40817;51.520;9.954;2023-04-06T09:03:40;11.15;;;7.00;;
11998;SDS011;40817;51.520;9.954;2023-04-06T09:06:11;11.55;;;6.80;;
11998;SDS011;40817;51.520;9.954;2023-04-06T09:08:40;11.65;;;6.90;;
11998;SDS011;40817;51.520;9.954;2023-04-06T09:11:08;9.95;;;6.60;;
11998;SDS011;40817;51.520;9.954;2023-04-06T09:13:47;10.65;;;6.40;;
11998;SDS011;40817;51.520;9.954;2023-04-06T09:16:17;11.05;;;6.43;;
11998;SDS011;40817;51.520;9.954;2023-04-06T09:18:47;11.30;;;6.65;;
11998;SDS011;40817;51.520;9.954;2023-04-06T09:21:16;10.38;;;6.00;;
11998;SDS011;40817;51.520;9.954;2023-04-06T09:23:45;10.98;;;6.90;;
11998;SDS011;40817;51.520;9.954;2023-04-06T09:26:15;10.45;;;6.65;;
11998;SDS011;40817;51.520;9.954;2023-04-06T09:28:44;9.50;;;6.88;;
11998;SDS011;40817;51.520;9.954;2023-04-06T09:31:15;11.13;;;6.82;;
11998;SDS011;40817;51.520;9.954;2023-04-06T09:33:49;12.18;;;6.97;;
11998;SDS011;40817;51.520;9.954;2023-04-06T09:36:18;12.35;;;6.57;;
11998;SDS011;40817;51.520;9.954;2023-04-06T09:38:53;8.20;;;5.40;;
11998;SDS011;40817;51.520;9.954;2023-04-06T09:41:23;9.75;;;6.43;;
11998;SDS011;40817;51.520;9.954;2023-04-06T09:44:01;13.00;;;6.15;;
11998;SDS011;40817;51.520;9.954;2023-04-06T09:46:31;10.15;;;5.85;;
11998;SDS011;40817;51.520;9.954;2023-04-06T09:49:03;8.68;;;5.63;;
11998;SDS011;40817;51.520;9.954;2023-04-06T09:51:35;8.65;;;6.28;;
11998;SDS011;40817;51.520;9.954;2023-04-06T09:54:06;9.10;;;5.50;;
11998;SDS011;40817;51.520;9.954;2023-04-06T09:56:37;9.73;;;5.78;;
11998;SDS011;40817;51.520;9.954;2023-04-06T09:59:13;7.72;;;5.35;;
11998;SDS011;40817;51.520;9.954;2023-04-06T10:02:03;6.57;;;5.07;;
11998;SDS011;40817;51.520;9.954;2023-04-06T10:04:37;8.63;;;4.82;;
11998;SDS011;40817;51.520;9.954;2023-04-06T10:07:16;9.65;;;5.28;;
11998;SDS011;40817;51.520;9.954;2023-04-06T10:09:45;7.90;;;4.30;;
11998;SDS011;40817;51.520;9.954;2023-04-06T10:12:14;8.57;;;4.80;;
11998;SDS011;40817;51.520;9.954;2023-04-06T10:14:42;7.07;;;4.32;;
11998;SDS011;40817;51.520;9.954;2023-04-06T10:17:10;6.57;;;4.20;;
11998;SDS011;40817;51.520;9.954;2023-04-06T10:19:41;7.55;;;4.50;;
11998;SDS011;40817;51.520;9.954;2023-04-06T10:22:29;6.75;;;4.93;;
11998;SDS011;40817;51.520;9.954;2023-04-06T10:25:08;13.35;;;5.82;;
11998;SDS011;40817;51.520;9.954;2023-04-06T10:27:36;8.18;;;5.78;;
11998;SDS011;40817;51.520;9.954;2023-04-06T10:30:04;10.00;;;5.95;;
11998;SDS011;40817;51.520;9.954;2023-04-06T10:32:34;8.98;;;5.88;;
11998;SDS011;40817;51.520;9.954;2023-04-06T10:35:10;7.70;;;5.53;;
11998;SDS011;40817;51.520;9.954;2023-04-06T10:37:51;10.27;;;6.60;;
11998;SDS011;40817;51.520;9.954;2023-04-06T10:40:29;11.38;;;6.07;;
11998;SDS011;40817;51.520;9.954;2023-04-06T10:43:06;9.00;;;6.22;;
11998;SDS011;40817;51.520;9.954;2023-04-06T10:45:37;10.02;;;5.95;;
11998;SDS011;40817;51.520;9.954;2023-04-06T10:48:12;9.48;;;6.60;;
11998;SDS011;40817;51.520;9.954;2023-04-06T10:50:43;11.13;;;5.80;;
11998;SDS011;40817;51.520;9.954;2023-04-06T10:53:20;11.32;;;7.50;;
11998;SDS011;40817;51.520;9.954;2023-04-06T10:55:49;11.73;;;7.50;;
11998;SDS011;40817;51.520;9.954;2023-04-06T10:58:19;9.90;;;6.15;;
11998;SDS011;40817;51.520;9.954;2023-04-06T11:00:47;9.27;;;6.18;;
11998;SDS011;40817;51.520;9.954;2023-04-06T11:03:16;9.52;;;6.38;;
11998;SDS011;40817;51.520;9.954;2023-04-06T11:05:46;10.35;;;7.63;;
11998;SDS011;40817;51.520;9.954;2023-04-06T11:08:24;12.20;;;7.30;;
11998;SDS011;40817;51.520;9.954;2023-04-06T11:11:03;10.23;;;7.78;;
11998;SDS011;40817;51.520;9.954;2023-04-06T11:13:40;10.77;;;6.75;;
11998;SDS011;40817;51.520;9.954;2023-04-06T11:16:13;10.02;;;6.95;;
11998;SDS011;40817;51.520;9.954;2023-04-06T11:18:49;9.77;;;6.65;;
11998;SDS011;40817;51.520;9.954;2023-04-06T11:21:31;12.35;;;7.38;;
11998;SDS011;40817;51.520;9.954;2023-04-06T11:24:05;12.63;;;6.50;;
11998;SDS011;40817;51.520;9.954;2023-04-06T11:26:36;11.57;;;7.32;;
11998;SDS011;40817;51.520;9.954;2023-04-06T11:29:07;10.43;;;7.13;;
11998;SDS011;40817;51.520;9.954;2023-04-06T11:31:41;10.57;;;7.68;;
11998;SDS011;40817;51.520;9.954;2023-04-06T11:34:13;10.95;;;6.82;;
11998;SDS011;40817;51.520;9.954;2023-04-06T11:36:46;9.43;;;7.00;;
11998;SDS011;40817;51.520;9.954;2023-04-06T11:39:18;13.57;;;7.43;;
11998;SDS011;40817;51.520;9.954;2023-04-06T11:41:49;9.82;;;6.82;;
11998;SDS011;40817;51.520;9.954;2023-04-06T11:44:28;12.35;;;7.30;;
11998;SDS011;40817;51.520;9.954;2023-04-06T11:47:00;10.13;;;6.53;;
11998;SDS011;40817;51.520;9.954;2023-04-06T11:49:29;11.73;;;7.78;;
11998;SDS011;40817;51.520;9.954;2023-04-06T11:52:00;10.73;;;7.07;;
11998;SDS011;40817;51.520;9.954;2023-04-06T11:54:32;11.05;;;7.55;;
11998;SDS011;40817;51.520;9.954;2023-04-06T11:57:01;9.40;;;7.32;;
11998;SDS011;40817;51.520;9.954;2023-04-06T11:59:30;10.75;;;7.25;;
11998;SDS011;40817;51.520;9.954;2023-04-06T12:01:58;10.13;;;7.15;;
11998;SDS011;40817;51.520;9.954;2023-04-06T12:04:27;13.13;;;7.22;;
11998;SDS011;40817;51.520;9.954;2023-04-06T12:06:55;11.98;;;7.53;;
11998;SDS011;40817;51.520;9.954;2023-04-06T12:09:25;16.58;;;8.13;;
11998;SDS011;40817;51.520;9.954;2023-04-06T12:11:53;12.68;;;8.00;;
11998;SDS011;40817;51.520;9.954;2023-04-06T12:14:21;10.60;;;7.75;;
11998;SDS011;40817;51.520;9.954;2023-04-06T12:16:49;11.57;;;7.75;;
11998;SDS011;40817;51.520;9.954;2023-04-06T12:19:17;13.35;;;7.70;;
11998;SDS011;40817;51.520;9.954;2023-04-06T12:21:45;10.30;;;7.38;;
11998;SDS011;40817;51.520;9.954;2023-04-06T12:24:13;12.15;;;8.15;;
11998;SDS011;40817;51.520;9.954;2023-04-06T12:26:42;10.52;;;7.53;;
11998;SDS011;40817;51.520;9.954;2023-04-06T12:29:10;9.95;;;7.32;;
11998;SDS011;40817;51.520;9.954;2023-04-06T12:31:38;10.60;;;7.50;;
11998;SDS011;40817;51.520;9.954;2023-04-06T12:34:08;11.25;;;7.95;;
11998;SDS011;40817;51.520;9.954;2023-04-06T12:36:36;13.20;;;7.78;;
11998;SDS011;40817;51.520;9.954;2023-04-06T12:39:05;11.40;;;7.70;;
11998;SDS011;40817;51.520;9.954;2023-04-06T12:41:33;10.15;;;6.88;;
11998;SDS011;40817;51.520;9.954;2023-04-06T12:44:03;9.52;;;6.75;;
11998;SDS011;40817;51.520;9.954;2023-04-06T12:46:30;10.43;;;6.97;;
11998;SDS011;40817;51.520;9.954;2023-04-06T12:48:58;8.23;;;6.03;;
11998;SDS011;40817;51.520;9.954;2023-04-06T12:51:27;9.98;;;5.95;;
11998;SDS011;40817;51.520;9.954;2023-04-06T12:53:56;10.68;;;6.57;;
11998;SDS011;40817;51.520;9.954;2023-04-06T12:56:24;9.18;;;6.40;;
11998;SDS011;40817;51.520;9.954;2023-04-06T12:58:53;10.00;;;6.28;;
11998;SDS011;40817;51.520;9.954;2023-04-06T13:01:23;11.27;;;6.75;;
11998;SDS011;40817;51.520;9.954;2023-04-06T13:03:53;9.82;;;6.45;;
11998;SDS011;40817;51.520;9.954;2023-04-06T13:06:20;9.60;;;6.43;;
11998;SDS011;40817;51.520;9.954;2023-04-06T13:08:48;9.30;;;6.90;;
11998;SDS011;40817;51.520;9.954;2023-04-06T13:11:16;10.80;;;7.00;;
11998;SDS011;40817;51.520;9.954;2023-04-06T13:13:45;8.63;;;6.35;;
11998;SDS011;40817;51.520;9.954;2023-04-06T13:16:14;8.30;;;6.40;;
11998;SDS011;40817;51.520;9.954;2023-04-06T13:18:43;8.63;;;6.13;;
11998;SDS011;40817;51.520;9.954;2023-04-06T13:21:13;8.65;;;6.10;;
11998;SDS011;40817;51.520;9.954;2023-04-06T13:23:42;8.30;;;5.75;;
11998;SDS011;40817;51.520;9.954;2023-04-06T13:26:10;7.88;;;6.05;;
11998;SDS011;40817;51.520;9.954;2023-04-06T13:28:40;11.30;;;6.45;;
11998;SDS011;40817;51.520;9.954;2023-04-06T13:31:08;8.90;;;5.97;;
11998;SDS011;40817;51.520;9.954;2023-04-06T13:33:36;9.35;;;5.45;;
11998;SDS011;40817;51.520;9.954;2023-04-06T13:36:07;9.50;;;6.47;;
11998;SDS011;40817;51.520;9.954;2023-04-06T13:38:35;8.30;;;6.25;;
11998;SDS011;40817;51.520;9.954;2023-04-06T13:41:04;8.25;;;5.68;;
11998;SDS011;40817;51.520;9.954;2023-04-06T13:43:32;9.40;;;6.03;;
11998;SDS011;40817;51.520;9.954;2023-04-06T13:46:00;8.98;;;6.32;;
11998;SDS011;40817;51.520;9.954;2023-04-06T13:48:28;9.13;;;6.28;;
11998;SDS011;40817;51.520;9.954;2023-04-06T13:50:57;8.02;;;5.95;;
11998;SDS011;40817;51.520;9.954;2023-04-06T13:53:35;7.60;;;6.10;;
11998;SDS011;40817;51.520;9.954;2023-04-06T13:56:02;10.45;;;6.55;;
11998;SDS011;40817;51.520;9.954;2023-04-06T13:58:31;8.45;;;6.00;;
11998;SDS011;40817;51.520;9.954;2023-04-06T14:01:01;7.43;;;6.00;;
11998;SDS011;40817;51.520;9.954;2023-04-06T14:03:31;10.65;;;6.25;;
11998;SDS011;40817;51.520;9.954;2023-04-06T14:05:59;7.88;;;5.70;;
11998;SDS011;40817;51.520;9.954;2023-04-06T14:08:27;8.68;;;6.03;;
11998;SDS011;40817;51.520;9.954;2023-04-06T14:10:56;8.93;;;6.65;;
11998;SDS011;40817;51.520;9.954;2023-04-06T14:13:24;6.63;;;5.63;;
11998;SDS011;40817;51.520;9.954;2023-04-06T14:15:54;7.95;;;5.80;;
11998;SDS011;40817;51.520;9.954;2023-04-06T14:18:22;8.95;;;5.75;;
11998;SDS011;40817;51.520;9.954;2023-04-06T14:20:53;8.10;;;6.30;;
11998;SDS011;40817;51.520;9.954;2023-04-06T14:23:21;8.98;;;5.50;;
11998;SDS011;40817;51.520;9.954;2023-04-06T14:25:51;9.20;;;5.65;;
11998;SDS011;40817;51.520;9.954;2023-04-06T14:28:31;8.70;;;5.35;;
11998;SDS011;40817;51.520;9.954;2023-04-06T14:31:00;7.18;;;5.00;;
11998;SDS011;40817;51.520;9.954;2023-04-06T14:33:35;7.78;;;5.40;;
11998;SDS011;40817;51.520;9.954;2023-04-06T14:36:03;8.10;;;5.20;;
11998;SDS011;40817;51.520;9.954;2023-04-06T14:38:31;7.38;;;4.97;;
11998;SDS011;40817;51.520;9.954;2023-04-06T14:40:59;7.53;;;5.72;;
11998;SDS011;40817;51.520;9.954;2023-04-06T14:43:31;7.10;;;5.30;;
11998;SDS011;40817;51.520;9.954;2023-04-06T14:46:00;5.85;;;4.65;;
11998;SDS011;40817;51.520;9.954;2023-04-06T14:48:27;6.03;;;4.70;;
11998;SDS011;40817;51.520;9.954;2023-04-06T14:50:55;6.40;;;5.13;;
11998;SDS011;40817;51.520;9.954;2023-04-06T14:53:23;7.63;;;5.18;;